This demonstration page uses our WeatherBlox Daily Observations layout. Learn more.

41.55636, -103.73856

Hourly Observations for August 8, 2019

Temp ( °F °C ) Dew Point ( °F °C ) Humidity (%) Winds ( mph kmh ) Pressure ( in mb ) Visibility ( mi km ) Precip ( " mm )
12:58 am 00:58 Mostly Cloudy 65 18.5 55 12.8 70 70 SE 16 26 29.93 1014 10 16.0934 0.12 3.048
1:58 am 01:58 Mostly Cloudy 67 19.7 56 13.1 66 66 N 16 26 30 1016 10 16.0934 0 0
2:58 am 02:58 Mostly Cloudy with Heavy Showers 61 16.3 59 14.8 91 91 E 15 24 30 1016 10 16.0934 0.14 3.556
3:58 am 03:58 Mostly Cloudy 62 16.6 59 14.8 89 89 ESE 10 17 29.98 1015 10 16.0934 0 0
4:58 am 04:58 Mostly Cloudy 61 16.3 57 13.9 86 86 Calm 29.96 1015 10 16.0934 0 0
5:58 am 05:58 Mostly Clear 61 16 57 14 88 88 NNW 6 9 29.97 1015 10 16.0934 0 0
6:58 am 06:58 Mostly Cloudy 61 16.3 58 14.3 88 88 WSW 7 11 29.96 1015 10 16.0934 0 0
7:58 am 07:58 Cloudy 63 17.4 57 13.9 80 80 SSW 6 9 29.93 1014 10 16.0934 0 0
8:58 am 08:58 Cloudy 62 16.9 58 14.5 86 86 WSW 5 7 29.94 1014 10 16.0934 0 0
9:58 am 09:58 Cloudy 63 17.2 58 14.5 84 84 WSW 5 7 29.94 1014 10 16.0934 0 0
10:58 am 10:58 Mostly Cloudy 63 17 58 14.7 86 86 Calm 29.96 1015 10 16.0934 0 0
11:58 am 11:58 Mostly Cloudy 64 17.6 57 13.7 78 78 Calm 29.99 1016 10 16.0934 0 0
12:58 pm 12:58 Mostly Cloudy 64 17.6 59 15 85 85 E 7 11 30 1016 10 16.0934 0 0
1:58 pm 13:58 Mostly Cloudy 65 18.1 59 15 82 82 ESE 8 13 30 1016 10 16.0934 0 0
2:58 pm 14:58 Mostly Cloudy 67 19.5 60 15.5 78 78 ENE 7 11 30.02 1017 10 16.0934 0 0
4:56 pm 16:56 Mostly Cloudy 72 22 59 15.1 65 65 ENE 8 13 30.02 1017 10 16.0934 0 0
5:56 pm 17:56 Mostly Sunny 75 23.8 57 14.1 55 55 E 3 6 30 1016 10 16.0934 0 0
6:56 pm 18:56 Partly Cloudy 76 24.6 58 14.6 54 54 E 5 7 29.98 1015 10 16.0934 0 0
7:56 pm 19:56 Partly Cloudy 78 25.3 60 15.5 55 55 NE 5 7 29.98 1015 10 16.0934 0 0
8:56 pm 20:56 Mostly Cloudy 77 24.8 62 16.5 60 60 SSE 6 9 29.96 1015 10 16.0934 0 0
9:58 pm 21:58 Mostly Sunny 78 25.7 62 16.8 58 58 SE 8 13 29.93 1014 10 16.0934 0 0
10:58 pm 22:58 Mostly Cloudy 77 25.1 60 15.5 55 55 S 12 19 29.92 1013 10 16.0934 0 0
11:58 pm 23:58 Partly Cloudy 80 26.5 57 13.7 45 45 SSE 8 13 29.9 1012 10 16.0934 0 0

Powered by AerisWeather